Terminal Aerodrome Forecast
Issued by NWS Greer, SC

Home | Current Version | Previous Version | Text Only | Print | Product List | Glossary On
Versions: 1 2 3 4 5 6 7 8 9 10 11 12 13 14 15 16 17 18 19 20 21 22 23 24 25 26 27 28 29 30 31 32 33 34 35 36
000
FTUS42 KGSP 231100
TAFAVL
TAF
KAVL 231127Z 2312/2412 00000KT P6SM SCT100
     FM231400 33006KT P6SM VCSH SCT040 BKN100
     FM231800 32006KT P6SM VCTS BKN050CB
     FM232100 33007KT P6SM SCT050 PROB30 2321/2403 4SM TSRA BKN040CB
     FM240500 34003KT 6SM BR BKN027=

USA.gov is the U.S. government's official web portal to all federal, state and local government web resources and services.